METAR AND TAF INFORMATION
METAR FOR ZJSY
ADDS - METARS form results

(2125 UTC 26 March 2019)
Data provider http://aviationweather.gov/metar/data/
 
METAR text: ZJSY 262100Z 08003MPS CAVOK 24/22 Q1015 NOSIG
Conditions at: ZJSY (SANYA/FENGHUANG , CN) observed 2100 UTC 26 March 2019
Temperature: 24.0°C (75°F)
Dewpoint: 22.0°C (72°F) [RH = 89%]
Pressure (altimeter): 29.97 inches Hg (1015.0 mb)
Winds: from the E (80 degrees) at 7 MPH (6 knots; 3.1 m/s)
Visibility: 6 or more miles (10+ km)
Ceiling: ceiling and visibility are OK
Clouds: unknown
Weather: no significant weather observed at this time

Forecast for: ZJSY (SANYA/FENGHUANG , CN)
Text: TAF ZJSY 261500Z 2618/2718 09004MPS 9999 FEW020 TX31/2706Z TN23/2621Z
Forecast period: 1800 UTC 26 March 2019 to 1800 UTC 27 March 2019
Forecast type: FROM: standard forecast or significant change
Winds: from the E (90 degrees) at 9 MPH (8 knots; 4.1 m/s)
Visibility: 6 or more miles 10+ km)
Ceiling: at least 12,000 feet AGL
Clouds: few clouds at 2000 feet AGL
Weather: no significant weather forecast for this period

 AIRPORT MAP

 RUNWAY INFORMATION

 AIRPORT FREQUENCIES
Type TWR Name FENGHUANG Frequency 118.15 MHZ

 AIRPORT NEAR NAVIGATION AIDS
Type VOR-DME Name Sanya Frequency 112500 KHZ
Type NDB Name Baolong Frequency 426 KHZ



2018 Air Astana Virtual Airline